Time;durP1;ratioP1;P1;durP2;ratioP2;P2;SDS_P1;SDS_P2;PMS_P1;PMS_P2;Temp;Humidity;BMP_temperature;BMP_pressure;BME280_temperature;BME280_humidity;BME280_pressure;Samples;Min_cycle;Max_cycle;Signal;HPM_P1;HPM_P2
2023/05/14 00:01:50;;;;;;;21.55;9.27;;;13.30;99.90;;;;;;5086303;28;20698;-76
2023/05/14 00:04:18;;;;;;;18.08;9.75;;;13.30;99.90;;;;;;5091567;28;20044;-75
2023/05/14 00:06:44;;;;;;;17.00;8.98;;;13.30;99.90;;;;;;5089946;28;20052;-79
2023/05/14 00:09:10;;;;;;;18.45;9.45;;;13.30;99.90;;;;;;5091241;28;20123;-76
2023/05/14 00:11:36;;;;;;;19.67;9.35;;;13.30;99.90;;;;;;5073930;28;20078;-75
2023/05/14 00:14:02;;;;;;;20.58;9.85;;;13.30;99.90;;;;;;5072971;28;20073;-76
2023/05/14 00:16:28;;;;;;;16.70;9.73;;;13.20;99.90;;;;;;5091188;28;20397;-76
2023/05/14 00:18:53;;;;;;;22.65;10.00;;;13.20;99.90;;;;;;5049562;28;20047;-75
2023/05/14 00:21:19;;;;;;;16.65;9.30;;;13.20;99.90;;;;;;5088194;28;20063;-76
2023/05/14 00:23:45;;;;;;;20.33;9.95;;;13.20;99.90;;;;;;5079643;28;20048;-79
2023/05/14 00:26:10;;;;;;;16.83;8.65;;;13.10;99.90;;;;;;5094855;28;20040;-75
2023/05/14 00:28:36;;;;;;;20.15;9.95;;;13.10;99.90;;;;;;5098361;28;20505;-76
2023/05/14 00:31:02;;;;;;;22.65;9.95;;;13.10;99.90;;;;;;5086518;28;20044;-75
2023/05/14 00:33:27;;;;;;;20.77;9.18;;;13.10;99.90;;;;;;5074168;28;20094;-76
2023/05/14 00:35:53;;;;;;;16.00;9.65;;;13.00;99.90;;;;;;5073710;28;20059;-76
2023/05/14 00:38:19;;;;;;;17.83;9.35;;;13.00;99.90;;;;;;5107941;28;20047;-75
2023/05/14 00:40:50;;;;;;;16.67;9.07;;;13.00;99.90;;;;;;5074659;28;20040;-77
2023/05/14 00:43:19;;;;;;;20.20;9.63;;;13.00;99.90;;;;;;5090254;28;20036;-77
2023/05/14 00:45:50;;;;;;;18.05;9.45;;;12.90;99.90;;;;;;5085307;28;20044;-76
2023/05/14 00:48:16;;;;;;;15.90;8.75;;;12.90;99.90;;;;;;5081910;28;20055;-75
2023/05/14 00:50:42;;;;;;;;;;;12.90;99.90;;;;;;5091338;28;20532;-76
2023/05/14 00:53:09;;;;;;;21.42;9.48;;;12.90;99.90;;;;;;5063816;28;19967;-75
2023/05/14 00:55:40;;;;;;;18.95;9.18;;;12.80;99.90;;;;;;5050949;28;20478;-76
2023/05/14 00:58:10;;;;;;;22.15;9.57;;;12.80;99.90;;;;;;5058113;28;20056;-75
2023/05/14 01:00:37;;;;;;;18.85;9.40;;;12.80;99.90;;;;;;5070596;28;20101;-76
2023/05/14 01:03:04;;;;;;;15.73;9.55;;;12.80;99.90;;;;;;5069622;28;20197;-76
2023/05/14 01:05:53;;;;;;;23.08;10.02;;;12.80;99.90;;;;;;5070339;28;20143;-75
2023/05/14 01:08:46;;;;;;;18.17;9.85;;;12.80;99.90;;;;;;5087736;28;20427;-75
2023/05/14 01:11:29;;;;;;;20.63;9.70;;;12.70;99.90;;;;;;5068609;28;20052;-76
2023/05/14 01:14:04;;;;;;;22.13;10.82;;;12.70;99.90;;;;;;5068008;28;20052;-75
2023/05/14 01:16:32;;;;;;;21.35;9.93;;;12.70;99.90;;;;;;5087400;28;20052;-75
2023/05/14 01:18:59;;;;;;;19.35;9.43;;;12.70;99.90;;;;;;5068742;28;20383;-75
2023/05/14 01:21:34;;;;;;;18.02;9.50;;;12.70;99.90;;;;;;5070301;28;20058;-75
2023/05/14 01:24:00;;;;;;;19.10;10.07;;;12.70;99.90;;;;;;5069755;28;20536;-75
2023/05/14 01:26:26;;;;;;;18.33;10.15;;;12.70;99.90;;;;;;5087176;28;20088;-75
2023/05/14 01:28:54;;;;;;;19.98;11.23;;;12.70;99.90;;;;;;5052817;28;20095;-79
2023/05/14 01:31:26;;;;;;;21.55;10.57;;;12.60;99.90;;;;;;5066868;28;20047;-75
2023/05/14 01:33:55;;;;;;;17.92;9.93;;;12.60;99.90;;;;;;5063408;28;20053;-75
2023/05/14 01:36:21;;;;;;;18.00;10.48;;;12.50;99.90;;;;;;5049969;28;20064;-76
2023/05/14 01:38:49;;;;;;;20.73;11.07;;;12.50;99.90;;;;;;5050017;28;20122;-75
2023/05/14 01:41:15;;;;;;;19.90;10.52;;;12.50;99.90;;;;;;5049797;28;20103;-76
2023/05/14 01:43:41;;;;;;;24.15;10.48;;;12.50;99.90;;;;;;5049094;28;20497;-75
2023/05/14 01:46:07;;;;;;;19.92;10.70;;;12.50;99.90;;;;;;5082947;28;20060;-76
2023/05/14 01:48:33;;;;;;;26.63;10.82;;;12.50;99.90;;;;;;5053062;28;20048;-76
2023/05/14 01:50:58;;;;;;;23.10;11.45;;;12.40;99.90;;;;;;5086264;28;20098;-75
2023/05/14 01:53:24;;;;;;;22.23;11.20;;;12.40;99.90;;;;;;5077702;28;20512;-76
2023/05/14 01:55:50;;;;;;;19.83;10.65;;;12.40;99.90;;;;;;5069809;28;20052;-77
2023/05/14 01:58:16;;;;;;;19.58;10.88;;;12.40;99.90;;;;;;5084750;28;20074;-76
2023/05/14 02:00:41;;;;;;;18.17;10.75;;;12.30;99.90;;;;;;5064231;28;20067;-75
2023/05/14 02:03:07;;;;;;;20.60;11.50;;;12.30;99.90;;;;;;5052132;28;20044;-75
2023/05/14 02:05:33;;;;;;;23.92;11.73;;;12.20;99.90;;;;;;5064544;28;20056;-75
2023/05/14 02:07:58;;;;;;;23.50;11.80;;;12.20;99.90;;;;;;5069380;28;20494;-79
2023/05/14 02:10:24;;;;;;;24.83;11.35;;;12.20;99.90;;;;;;5052922;28;20089;-76
2023/05/14 02:12:50;;;;;;;27.05;11.93;;;12.20;99.90;;;;;;5085532;28;20131;-75
2023/05/14 02:15:15;;;;;;;25.08;12.40;;;12.20;99.90;;;;;;5084084;28;20040;-76
2023/05/14 02:17:41;;;;;;;23.60;12.02;;;12.20;99.90;;;;;;5069144;28;20052;-75
2023/05/14 02:20:09;;;;;;;25.17;11.38;;;12.20;99.90;;;;;;5069438;28;20126;-74
2023/05/14 02:22:34;;;;;;;21.98;11.63;;;12.20;99.90;;;;;;5063223;28;20067;-76
2023/05/14 02:25:00;;;;;;;20.92;11.48;;;12.20;99.90;;;;;;5086114;28;20040;-79
2023/05/14 02:27:26;;;;;;;26.25;11.82;;;12.10;99.90;;;;;;5085556;28;20167;-76
2023/05/14 02:29:52;;;;;;;24.48;12.27;;;12.10;99.90;;;;;;5069739;28;20045;-76
2023/05/14 02:32:18;;;;;;;23.60;12.25;;;12.10;99.90;;;;;;5068013;28;20048;-75
2023/05/14 02:34:43;;;;;;;25.35;13.23;;;12.10;99.90;;;;;;5084413;28;20404;-75
2023/05/14 02:37:09;;;;;;;21.38;12.50;;;12.00;99.90;;;;;;5075703;28;20059;-76
2023/05/14 02:39:35;;;;;;;23.17;12.20;;;12.00;99.90;;;;;;5057297;28;20056;-75
2023/05/14 02:42:00;;;;;;;19.70;11.82;;;12.00;99.90;;;;;;5069913;28;20044;-76
2023/05/14 02:44:26;;;;;;;22.42;12.57;;;12.00;99.90;;;;;;5084823;28;20040;-75
2023/05/14 02:46:51;;;;;;;26.45;11.93;;;12.00;99.90;;;;;;5054839;28;20675;-74
2023/05/14 02:49:17;;;;;;;27.90;12.25;;;11.90;99.90;;;;;;5049609;28;20048;-75
2023/05/14 02:51:43;;;;;;;26.63;12.32;;;11.90;99.90;;;;;;5049155;28;20118;-75
2023/05/14 02:54:08;;;;;;;25.55;11.95;;;11.90;99.90;;;;;;5061152;28;20044;-75
2023/05/14 02:56:34;;;;;;;24.13;12.80;;;11.80;99.90;;;;;;5069311;28;20398;-75
2023/05/14 02:59:00;;;;;;;20.38;11.88;;;11.80;99.90;;;;;;5068213;28;20083;-75
2023/05/14 03:01:25;;;;;;;21.98;12.50;;;11.70;99.90;;;;;;5069344;28;20083;-75
2023/05/14 03:03:51;;;;;;;21.35;12.07;;;11.70;99.90;;;;;;5048822;28;20103;-76
2023/05/14 03:06:17;;;;;;;20.88;11.93;;;11.70;99.90;;;;;;5065113;28;20562;-75
2023/05/14 03:08:42;;;;;;;22.70;12.63;;;11.60;99.90;;;;;;5050190;28;20125;-75
2023/05/14 03:11:08;;;;;;;21.10;12.18;;;11.60;99.90;;;;;;5073902;28;20046;-75
2023/05/14 03:13:34;;;;;;;22.65;12.50;;;11.60;99.90;;;;;;5085006;28;20079;-75
2023/05/14 03:15:59;;;;;;;22.45;12.38;;;11.50;99.90;;;;;;5084153;28;20040;-76
2023/05/14 03:18:27;;;;;;;20.35;12.82;;;11.60;99.90;;;;;;5051536;28;20796;-75
2023/05/14 03:20:52;;;;;;;23.58;13.07;;;11.60;99.90;;;;;;5085461;28;20048;-74
2023/05/14 03:23:18;;;;;;;21.98;12.02;;;11.50;99.90;;;;;;5065157;28;20041;-75
2023/05/14 03:25:44;;;;;;;20.10;12.45;;;11.50;99.90;;;;;;5049167;28;20048;-74
2023/05/14 03:28:09;;;;;;;23.98;12.98;;;11.50;99.90;;;;;;5081858;28;20044;-75
2023/05/14 03:30:35;;;;;;;26.33;12.73;;;11.50;99.90;;;;;;5085612;28;20054;-74
2023/05/14 03:33:01;;;;;;;25.10;13.48;;;11.50;99.90;;;;;;5085653;28;20087;-75
2023/05/14 03:35:26;;;;;;;24.05;12.13;;;11.50;99.90;;;;;;5067738;28;20048;-75
2023/05/14 03:37:52;;;;;;;22.40;12.27;;;11.50;99.90;;;;;;5083808;28;20049;-74
2023/05/14 03:40:18;;;;;;;24.45;12.82;;;11.50;99.90;;;;;;5085297;28;20044;-75
2023/05/14 03:42:44;;;;;;;28.73;12.07;;;11.50;99.90;;;;;;5069492;28;20200;-76
2023/05/14 03:45:10;;;;;;;18.83;11.73;;;11.50;99.90;;;;;;5066011;28;20049;-76
2023/05/14 03:47:35;;;;;;;22.70;12.80;;;11.40;99.90;;;;;;5069921;28;20125;-76
2023/05/14 03:50:01;;;;;;;24.38;12.38;;;11.40;99.90;;;;;;5092174;28;20059;-76
2023/05/14 03:52:27;;;;;;;23.63;12.55;;;11.30;99.90;;;;;;5090820;28;20174;-76
2023/05/14 03:54:52;;;;;;;24.40;12.73;;;11.20;99.90;;;;;;5058794;28;20393;-75
2023/05/14 03:57:18;;;;;;;23.73;12.60;;;11.20;99.90;;;;;;5092051;28;20044;-76
2023/05/14 03:59:43;;;;;;;26.45;13.10;;;11.20;99.90;;;;;;5091335;28;20121;-76
2023/05/14 04:02:09;;;;;;;21.10;11.82;;;11.20;99.90;;;;;;5091198;28;20097;-80
2023/05/14 04:04:35;;;;;;;23.05;13.23;;;11.20;99.90;;;;;;5038783;28;20052;-75
2023/05/14 04:07:01;;;;;;;24.17;12.95;;;11.20;99.90;;;;;;5062548;28;20063;-78
2023/05/14 04:09:26;;;;;;;26.60;14.45;;;11.20;99.90;;;;;;5055160;28;20882;-75
2023/05/14 04:11:52;;;;;;;20.50;12.65;;;11.20;99.90;;;;;;5091892;28;20052;-76
2023/05/14 04:14:18;;;;;;;28.02;14.43;;;11.20;99.90;;;;;;5073392;28;20048;-75
2023/05/14 04:16:43;;;;;;;25.98;13.52;;;11.20;99.90;;;;;;5075061;28;20051;-75
2023/05/14 04:19:09;;;;;;;24.02;12.23;;;11.20;99.90;;;;;;5073918;28;20385;-79
2023/05/14 04:21:35;;;;;;;25.88;12.98;;;11.20;99.90;;;;;;5057451;28;20431;-75
2023/05/14 04:24:00;;;;;;;27.05;13.35;;;11.20;99.90;;;;;;5045056;28;20042;-76
2023/05/14 04:26:26;;;;;;;30.08;14.00;;;11.20;99.90;;;;;;5080955;28;20036;-75
2023/05/14 04:28:52;;;;;;;25.92;12.88;;;11.20;99.90;;;;;;5057465;28;20044;-75
2023/05/14 04:31:17;;;;;;;25.45;13.63;;;11.20;99.90;;;;;;5091049;28;20051;-75
2023/05/14 04:33:43;;;;;;;26.15;14.07;;;11.30;99.90;;;;;;5090940;28;20044;-75
2023/05/14 04:36:09;;;;;;;25.60;13.60;;;11.30;99.90;;;;;;5074014;28;20143;-75
2023/05/14 04:38:34;;;;;;;25.77;13.77;;;11.30;99.90;;;;;;5090542;28;20048;-75
2023/05/14 04:41:01;;;;;;;24.98;14.63;;;11.40;99.90;;;;;;5091451;28;20404;-75
2023/05/14 04:43:26;;;;;;;25.92;14.70;;;11.40;99.90;;;;;;5089117;28;20038;-75
2023/05/14 04:45:52;;;;;;;24.35;13.85;;;11.40;99.90;;;;;;5081479;28;20124;-74
2023/05/14 04:48:17;;;;;;;23.20;13.48;;;11.40;99.90;;;;;;5086669;28;20370;-75
2023/05/14 04:50:43;;;;;;;29.38;14.65;;;11.40;99.90;;;;;;5073414;28;20052;-75
2023/05/14 04:53:10;;;;;;;22.92;13.73;;;11.50;99.90;;;;;;5035222;28;20036;-77
2023/05/14 04:55:36;;;;;;;23.27;13.07;;;11.50;99.90;;;;;;5090793;28;20118;-75
2023/05/14 04:58:02;;;;;;;27.67;13.18;;;11.50;99.90;;;;;;5086829;28;20092;-75
2023/05/14 05:00:28;;;;;;;28.05;14.02;;;11.50;99.90;;;;;;5089958;28;20052;-75
2023/05/14 05:02:53;;;;;;;29.00;13.98;;;11.50;99.90;;;;;;5090687;28;20497;-76
2023/05/14 05:05:19;;;;;;;23.95;13.73;;;11.60;99.90;;;;;;5089914;28;20070;-75
2023/05/14 05:07:45;;;;;;;23.10;13.73;;;11.60;99.90;;;;;;5076796;28;20512;-75
2023/05/14 05:10:10;;;;;;;21.23;13.18;;;11.60;99.90;;;;;;5080108;28;20044;-75
2023/05/14 05:12:37;;;;;;;26.13;13.85;;;11.70;99.90;;;;;;5082899;28;20043;-76
2023/05/14 05:15:03;;;;;;;;;;;11.70;99.90;;;;;;5081660;28;20150;-76
2023/05/14 05:17:28;;;;;;;28.05;14.07;;;11.80;99.90;;;;;;5062982;28;20042;-75
2023/05/14 05:19:54;;;;;;;23.83;13.77;;;11.80;99.90;;;;;;5048943;28;20053;-75
2023/05/14 05:22:20;;;;;;;22.27;14.27;;;11.80;99.90;;;;;;5089362;28;20048;-76
2023/05/14 05:24:46;;;;;;;22.77;13.90;;;11.80;99.90;;;;;;5090326;28;20047;-76
2023/05/14 05:27:12;;;;;;;25.30;13.38;;;11.90;99.90;;;;;;5079761;28;20056;-76
2023/05/14 05:29:37;;;;;;;27.90;13.43;;;11.90;99.90;;;;;;5083610;28;20393;-75
2023/05/14 05:32:03;;;;;;;27.13;13.50;;;11.90;99.90;;;;;;5098745;28;20059;-75
2023/05/14 05:34:30;;;;;;;22.08;14.13;;;12.00;99.90;;;;;;5103980;28;20114;-75
2023/05/14 05:36:55;;;;;;;;;;;12.00;99.90;;;;;;5090242;28;20067;-75
2023/05/14 05:39:21;;;;;;;23.65;13.52;;;12.10;99.90;;;;;;5076187;28;19927;-76
2023/05/14 05:41:47;;;;;;;24.55;13.82;;;12.10;99.90;;;;;;5090502;28;20101;-75
2023/05/14 05:44:12;;;;;;;30.15;14.38;;;12.20;99.90;;;;;;5088758;28;20068;-75
2023/05/14 05:46:38;;;;;;;26.73;13.90;;;12.30;99.90;;;;;;5048947;28;20048;-75
2023/05/14 05:49:04;;;;;;;26.52;14.77;;;12.30;99.90;;;;;;5085341;28;20040;-75
2023/05/14 05:51:30;;;;;;;27.60;15.05;;;12.40;99.90;;;;;;5038816;28;20040;-77
2023/05/14 05:53:55;;;;;;;;;;;12.40;99.90;;;;;;5097827;28;20056;-75
2023/05/14 05:56:21;;;;;;;23.25;14.32;;;12.40;99.90;;;;;;5089489;28;19931;-76
2023/05/14 05:58:47;;;;;;;23.02;14.50;;;12.50;99.90;;;;;;5089858;28;20417;-75
2023/05/14 06:01:13;;;;;;;23.60;14.35;;;12.50;99.90;;;;;;5072626;28;20073;-74
2023/05/14 06:03:38;;;;;;;24.70;14.18;;;12.50;99.90;;;;;;5088222;28;20051;-75
2023/05/14 06:06:05;;;;;;;23.42;14.30;;;12.50;99.90;;;;;;5089793;28;20051;-75
2023/05/14 06:08:30;;;;;;;27.58;14.57;;;12.60;99.90;;;;;;5059096;28;20525;-76
2023/05/14 06:10:56;;;;;;;22.40;13.52;;;12.70;99.90;;;;;;5095657;28;20123;-75
2023/05/14 06:13:22;;;;;;;25.30;13.35;;;12.70;99.90;;;;;;5094596;28;20138;-75
2023/05/14 06:15:48;;;;;;;25.20;14.35;;;12.80;99.90;;;;;;5082347;28;20049;-75
2023/05/14 06:18:13;;;;;;;28.58;15.10;;;12.80;99.90;;;;;;5058957;28;20051;-75
2023/05/14 06:20:40;;;;;;;23.80;14.55;;;12.90;99.90;;;;;;5102294;28;20051;-76
2023/05/14 06:23:06;;;;;;;26.88;14.75;;;12.90;99.90;;;;;;5089297;28;20618;-75
2023/05/14 06:25:32;;;;;;;25.77;14.43;;;13.00;99.90;;;;;;5089392;28;20422;-75
2023/05/14 06:27:58;;;;;;;24.48;14.52;;;13.00;99.90;;;;;;5088689;28;20134;-76
2023/05/14 06:30:24;;;;;;;23.02;14.93;;;13.00;99.90;;;;;;5072558;28;20056;-75
2023/05/14 06:32:50;;;;;;;29.23;15.20;;;13.10;99.90;;;;;;5077742;28;20087;-75
2023/05/14 06:35:17;;;;;;;25.90;14.95;;;13.10;99.90;;;;;;5032330;28;20056;-75
2023/05/14 06:37:43;;;;;;;24.70;14.95;;;13.10;99.90;;;;;;5048654;28;20543;-76
2023/05/14 06:40:09;;;;;;;;;;;13.20;99.90;;;;;;5051157;28;20421;-75
2023/05/14 06:42:35;;;;;;;24.13;14.70;;;13.20;99.90;;;;;;5048329;28;19921;-77
2023/05/14 06:45:01;;;;;;;26.23;14.38;;;13.30;99.90;;;;;;5048821;28;20099;-75
2023/05/14 06:47:26;;;;;;;26.10;14.38;;;13.40;99.90;;;;;;5048236;28;20056;-74
2023/05/14 06:49:52;;;;;;;20.83;13.32;;;13.40;99.90;;;;;;5060667;28;20048;-74
2023/05/14 06:52:18;;;;;;;22.42;13.07;;;13.50;99.90;;;;;;5064551;28;20061;-75
2023/05/14 06:54:43;;;;;;;24.73;14.15;;;13.50;99.90;;;;;;5066292;28;20072;-75
2023/05/14 06:57:09;;;;;;;21.08;12.85;;;13.60;99.90;;;;;;5034144;28;20386;-75
2023/05/14 06:59:35;;;;;;;24.05;13.48;;;13.60;99.90;;;;;;5048158;28;20111;-75
2023/05/14 07:02:01;;;;;;;24.45;13.48;;;13.60;99.90;;;;;;5065687;28;20053;-76
2023/05/14 07:04:26;;;;;;;;;;;13.70;99.90;;;;;;5049374;28;20051;-75
2023/05/14 07:06:52;;;;;;;23.85;12.35;;;13.70;99.90;;;;;;5048733;28;20015;-75
2023/05/14 07:09:18;;;;;;;24.52;13.40;;;13.80;99.90;;;;;;5049048;28;20087;-75
2023/05/14 07:11:43;;;;;;;23.42;13.65;;;13.90;99.90;;;;;;5065626;28;20049;-74
2023/05/14 07:14:09;;;;;;;21.80;13.27;;;13.90;99.90;;;;;;5048068;28;20523;-74
2023/05/14 07:16:35;;;;;;;24.13;13.80;;;14.00;99.90;;;;;;5034537;28;20466;-75
2023/05/14 07:19:01;;;;;;;;;;;14.10;99.90;;;;;;5036427;28;20148;-75
2023/05/14 07:21:26;;;;;;;19.17;12.57;;;14.20;99.90;;;;;;5053732;28;20012;-75
2023/05/14 07:23:52;;;;;;;21.92;12.90;;;14.30;99.90;;;;;;5063151;28;20045;-75
2023/05/14 07:26:18;;;;;;;21.27;11.88;;;14.50;99.90;;;;;;5080802;28;20049;-75
2023/05/14 07:28:43;;;;;;;24.02;12.02;;;14.60;99.90;;;;;;5067901;28;20120;-75
2023/05/14 07:31:09;;;;;;;19.55;12.10;;;14.70;99.90;;;;;;5061216;28;20447;-81
2023/05/14 07:33:35;;;;;;;19.40;10.95;;;14.80;99.90;;;;;;5071317;28;20050;-84
2023/05/14 07:36:01;;;;;;;22.48;10.70;;;15.00;99.90;;;;;;5071607;28;20102;-72
2023/05/14 07:38:27;;;;;;;19.88;10.65;;;15.10;99.90;;;;;;5072189;28;20396;-71
2023/05/14 07:40:53;;;;;;;17.23;10.38;;;15.30;99.90;;;;;;5073253;28;20115;-69
2023/05/14 07:43:18;;;;;;;;;;;15.50;99.90;;;;;;5070102;28;20195;-69
2023/05/14 07:45:44;;;;;;;19.98;10.07;;;15.60;99.90;;;;;;5070833;28;19923;-69
2023/05/14 07:48:10;;;;;;;17.27;10.13;;;15.70;99.90;;;;;;5072682;28;20052;-69
2023/05/14 07:50:36;;;;;;;15.60;9.50;;;15.80;99.90;;;;;;5054637;28;20053;-68
2023/05/14 07:53:02;;;;;;;17.42;9.52;;;15.90;99.90;;;;;;5072894;28;20045;-69
2023/05/14 07:55:27;;;;;;;18.08;9.98;;;16.00;99.90;;;;;;5073063;28;20052;-83
2023/05/14 07:57:53;;;;;;;18.83;10.02;;;16.10;99.90;;;;;;5054605;28;20111;-76
2023/05/14 08:00:19;;;;;;;22.77;9.80;;;16.20;99.90;;;;;;5072435;28;20055;-75
2023/05/14 08:02:44;;;;;;;;;;;16.30;99.90;;;;;;5072896;28;20048;-75
2023/05/14 08:05:10;;;;;;;15.60;9.73;;;16.40;99.90;;;;;;5071514;28;19970;-85
2023/05/14 08:07:35;;;;;;;;;;;16.50;99.90;;;;;;5064239;28;20132;-85
2023/05/14 08:10:01;;;;;;;18.40;10.18;;;16.60;99.90;;;;;;5072656;28;19933;-79
2023/05/14 08:12:28;;;;;;;20.15;10.48;;;16.70;99.90;;;;;;5071356;28;20147;-78
2023/05/14 08:14:54;;;;;;;15.88;10.45;;;16.90;99.90;;;;;;5070835;28;20049;-73
2023/05/14 08:17:19;;;;;;;20.20;10.93;;;17.00;99.90;;;;;;5072464;28;20101;-73
2023/05/14 08:19:45;;;;;;;18.23;10.73;;;17.00;99.90;;;;;;5072047;28;20048;-72
2023/05/14 08:22:11;;;;;;;18.92;11.77;;;17.10;99.90;;;;;;5070401;28;20045;-76
2023/05/14 08:24:37;;;;;;;17.95;12.63;;;17.10;99.90;;;;;;5061453;28;20496;-75
2023/05/14 08:27:03;;;;;;;;;;;17.20;99.90;;;;;;5064324;28;20119;-80
2023/05/14 08:29:28;;;;;;;20.85;12.30;;;17.20;99.90;;;;;;5074019;28;20031;-81
2023/05/14 08:31:54;;;;;;;;;;;17.20;99.90;;;;;;5072855;28;20040;-81
2023/05/14 08:34:20;;;;;;;19.30;12.00;;;17.30;99.90;;;;;;5089531;28;19924;-80
2023/05/14 08:36:45;;;;;;;22.02;11.20;;;17.30;99.90;;;;;;5089381;28;20056;-80
2023/05/14 08:39:11;;;;;;;;;;;17.30;99.90;;;;;;5070099;28;20056;-80
2023/05/14 08:41:38;;;;;;;19.17;12.05;;;17.30;99.90;;;;;;5089049;28;20041;-81
2023/05/14 08:44:10;;;;;;;17.65;11.02;;;17.40;99.90;;;;;;5089529;28;20500;-71
2023/05/14 08:46:37;;;;;;;20.17;11.10;;;17.40;99.90;;;;;;5081871;28;20492;-71
2023/05/14 08:49:12;;;;;;;18.85;10.73;;;17.50;99.90;;;;;;5065553;28;20050;-72
2023/05/14 08:51:39;;;;;;;15.75;10.35;;;17.50;99.90;;;;;;5082190;28;20117;-71
2023/05/14 08:54:05;;;;;;;17.75;10.38;;;17.60;99.90;;;;;;5090222;28;20079;-71
2023/05/14 08:56:35;;;;;;;18.88;11.85;;;17.60;99.90;;;;;;5089593;28;20051;-72
2023/05/14 08:59:01;;;;;;;19.83;11.35;;;17.60;99.90;;;;;;5062917;28;20043;-72
2023/05/14 09:01:28;;;;;;;22.75;11.18;;;17.70;99.90;;;;;;5089006;28;20066;-71
2023/05/14 09:03:54;;;;;;;22.75;11.18;;;17.70;99.90;;;;;;5087894;28;20847;-70
2023/05/14 09:06:21;;;;;;;19.00;11.77;;;17.80;99.90;;;;;;5091622;28;20054;-71
2023/05/14 09:08:47;;;;;;;17.70;11.23;;;17.80;99.90;;;;;;5080987;28;20043;-71
2023/05/14 09:11:12;;;;;;;;;;;17.90;99.90;;;;;;5085566;28;20115;-73
2023/05/14 09:13:38;;;;;;;18.13;10.32;;;18.00;99.90;;;;;;5068732;28;20294;-72
2023/05/14 09:16:04;;;;;;;;;;;18.10;99.90;;;;;;5070202;28;20048;-71
2023/05/14 09:18:30;;;;;;;17.13;8.82;;;18.20;99.90;;;;;;5088372;28;20420;-71
2023/05/14 09:20:56;;;;;;;;;;;18.40;99.90;;;;;;5089321;28;20162;-71
2023/05/14 09:23:25;;;;;;;13.85;7.82;;;18.50;99.90;;;;;;5089379;28;19927;-71
2023/05/14 09:25:51;;;;;;;13.25;9.43;;;18.60;99.90;;;;;;5084561;28;20058;-72
2023/05/14 09:28:20;;;;;;;;;;;18.80;99.90;;;;;;5089298;28;20408;-71
2023/05/14 09:30:50;;;;;;;15.15;7.32;;;19.00;99.90;;;;;;5089482;28;19959;-71
2023/05/14 09:33:29;;;;;;;11.38;7.07;;;19.10;99.90;;;;;;5071090;28;20048;-72
2023/05/14 09:35:59;;;;;;;10.65;7.25;;;19.30;99.90;;;;;;5067118;28;20051;-72
2023/05/14 09:38:32;;;;;;;14.85;7.65;;;19.40;99.90;;;;;;5086058;28;20052;-73
2023/05/14 09:40:59;;;;;;;16.13;6.90;;;19.60;99.90;;;;;;5088059;28;20052;-71
2023/05/14 09:43:25;;;;;;;13.57;7.07;;;19.60;99.90;;;;;;5083542;28;20082;-72
2023/05/14 09:45:51;;;;;;;;;;;19.70;99.90;;;;;;5082012;28;20047;-74
2023/05/14 09:48:17;;;;;;;10.40;6.85;;;19.80;99.90;;;;;;5071098;28;20287;-69
2023/05/14 09:50:43;;;;;;;;;;;19.80;99.90;;;;;;5087978;28;20047;-70
2023/05/14 09:53:09;;;;;;;10.23;6.53;;;19.90;99.90;;;;;;5079750;28;19972;-69
2023/05/14 09:55:36;;;;;;;12.25;7.05;;;19.80;99.90;;;;;;5068834;28;20102;-70
2023/05/14 09:58:02;;;;;;;11.38;6.75;;;19.90;99.90;;;;;;5067981;28;20096;-71
2023/05/14 10:00:30;;;;;;;12.45;6.80;;;19.90;99.90;;;;;;5068868;28;20131;-67
2023/05/14 10:02:57;;;;;;;13.52;7.00;;;20.00;99.90;;;;;;5076748;28;20126;-70
2023/05/14 10:05:23;;;;;;;19.13;7.25;;;20.00;99.90;;;;;;5088660;28;20093;-70
2023/05/14 10:07:52;;;;;;;11.52;7.35;;;20.00;99.90;;;;;;5083046;28;20051;-69
2023/05/14 10:10:20;;;;;;;12.15;7.57;;;20.00;99.90;;;;;;5088427;28;20044;-69
2023/05/14 10:12:52;;;;;;;9.77;6.60;;;20.00;99.90;;;;;;5087892;28;20054;-75
2023/05/14 10:15:28;;;;;;;12.38;6.45;;;20.00;99.90;;;;;;5072787;28;20054;-78
2023/05/14 10:17:57;;;;;;;14.35;6.75;;;20.10;99.90;;;;;;5093285;28;20044;-77
2023/05/14 10:20:25;;;;;;;11.15;6.68;;;20.10;99.90;;;;;;5086593;28;20396;-76
2023/05/14 10:22:51;;;;;;;13.13;6.07;;;20.10;99.90;;;;;;5089550;28;20063;-75
2023/05/14 10:25:17;;;;;;;;;;;20.20;99.90;;;;;;5087719;28;20040;-75
2023/05/14 10:27:43;;;;;;;11.70;6.63;;;20.30;99.90;;;;;;5087874;28;19958;-73
2023/05/14 10:30:12;;;;;;;11.13;7.10;;;20.30;99.90;;;;;;5077584;28;20052;-76
2023/05/14 10:32:40;;;;;;;9.32;6.80;;;20.50;99.90;;;;;;5087817;28;20046;-73
2023/05/14 10:35:17;;;;;;;15.65;6.95;;;20.50;99.90;;;;;;5072759;28;20079;-76
2023/05/14 10:37:44;;;;;;;11.77;7.22;;;20.60;99.90;;;;;;5083935;28;20052;-76
2023/05/14 10:40:12;;;;;;;11.88;7.00;;;20.70;99.90;;;;;;5073906;28;20052;-75
2023/05/14 10:42:42;;;;;;;12.88;7.13;;;20.70;99.70;;;;;;5081901;28;20093;-76
2023/05/14 10:45:09;;;;;;;11.98;7.22;;;20.80;99.90;;;;;;5088888;28;20040;-77
2023/05/14 10:47:43;;;;;;;13.02;7.28;;;20.80;99.30;;;;;;5051768;28;20056;-76
2023/05/14 10:50:13;;;;;;;11.13;7.00;;;21.00;98.80;;;;;;5089538;28;20036;-77
2023/05/14 10:52:44;;;;;;;10.93;7.03;;;21.10;98.80;;;;;;5076511;28;20056;-82
2023/05/14 10:55:13;;;;;;;12.45;6.40;;;21.30;97.40;;;;;;5079235;28;20101;-82
2023/05/14 10:57:41;;;;;;;11.48;7.60;;;21.40;95.50;;;;;;5089229;28;20481;-79
2023/05/14 11:00:07;;;;;;;15.23;7.13;;;21.50;95.60;;;;;;5068470;28;20054;-72
2023/05/14 11:02:39;;;;;;;12.57;7.10;;;21.60;96.50;;;;;;5078720;28;20045;-73
2023/05/14 11:05:07;;;;;;;12.85;6.93;;;21.80;96.90;;;;;;5087899;28;20051;-72
2023/05/14 11:07:33;;;;;;;9.93;6.63;;;21.90;95.40;;;;;;5044728;28;20110;-71
2023/05/14 11:10:10;;;;;;;12.32;6.85;;;22.00;94.60;;;;;;5086564;28;20443;-73
2023/05/14 11:12:38;;;;;;;14.77;7.38;;;22.10;93.20;;;;;;5074502;28;20049;-71
2023/05/14 11:15:08;;;;;;;11.05;7.20;;;22.20;92.90;;;;;;5074506;28;20804;-78
2023/05/14 11:17:35;;;;;;;12.18;7.10;;;22.40;93.90;;;;;;5093317;28;20046;-78
2023/05/14 11:20:00;;;;;;;11.80;6.95;;;22.60;92.90;;;;;;5074877;28;20140;-77
2023/05/14 11:22:26;;;;;;;15.40;6.50;;;22.80;91.30;;;;;;5092149;28;20131;-76
2023/05/14 11:24:52;;;;;;;10.18;6.10;;;22.90;89.10;;;;;;5058809;28;20048;-79
2023/05/14 11:27:20;;;;;;;10.65;5.82;;;23.10;81.90;;;;;;5062053;28;20417;-77
2023/05/14 11:29:46;;;;;;;12.27;6.78;;;23.20;76.30;;;;;;5077544;28;20049;-79
2023/05/14 11:32:13;;;;;;;10.93;6.93;;;23.40;75.50;;;;;;5079445;28;20135;-76
2023/05/14 11:34:40;;;;;;;15.93;7.20;;;23.70;75.60;;;;;;5076119;28;20048;-76
2023/05/14 11:37:07;;;;;;;11.70;6.82;;;24.10;75.60;;;;;;5091106;28;20052;-76
2023/05/14 11:39:34;;;;;;;10.55;6.18;;;24.50;74.50;;;;;;5091735;28;20048;-76
2023/05/14 11:42:11;;;;;;;11.52;6.63;;;24.80;72.10;;;;;;5059066;28;20145;-76
2023/05/14 11:44:40;;;;;;;;;;;25.00;69.20;;;;;;5074800;28;20052;-76
2023/05/14 11:47:06;;;;;;;8.45;5.45;;;25.20;64.30;;;;;;5091247;28;19923;-76
2023/05/14 11:49:34;;;;;;;9.77;6.30;;;25.30;68.30;;;;;;5078085;28;20036;-77
2023/05/14 11:52:05;;;;;;;10.18;6.32;;;25.40;66.10;;;;;;5091082;28;20059;-76
2023/05/14 11:54:32;;;;;;;14.70;5.95;;;25.40;62.70;;;;;;5078903;28;20044;-77
2023/05/14 11:57:00;;;;;;;13.63;6.20;;;25.50;63.00;;;;;;5092126;28;20052;-76
2023/05/14 11:59:28;;;;;;;12.00;5.55;;;25.50;62.30;;;;;;5091076;28;20400;-76
2023/05/14 12:02:04;;;;;;;9.50;5.75;;;25.70;62.70;;;;;;5091247;28;20052;-76
2023/05/14 12:04:30;;;;;;;10.18;5.50;;;25.90;61.00;;;;;;5049465;28;20051;-78
2023/05/14 12:06:58;;;;;;;11.80;5.05;;;26.30;62.00;;;;;;5084151;28;20047;-78
2023/05/14 12:09:24;;;;;;;11.57;5.30;;;26.80;60.70;;;;;;5058880;28;20082;-76
2023/05/14 12:11:51;;;;;;;11.05;5.30;;;27.20;59.30;;;;;;5082871;28;20047;-77
2023/05/14 12:14:22;;;;;;;11.38;5.30;;;27.50;58.80;;;;;;5091036;28;20040;-77
2023/05/14 12:16:48;;;;;;;10.10;5.60;;;27.80;58.20;;;;;;5069484;28;20060;-79
2023/05/14 12:19:16;;;;;;;10.57;5.22;;;28.20;57.20;;;;;;5071441;28;20044;-76
2023/05/14 12:21:43;;;;;;;7.03;4.68;;;28.50;55.30;;;;;;5071416;28;20049;-77
2023/05/14 12:24:11;;;;;;;9.20;5.45;;;28.70;55.90;;;;;;5068883;28;20041;-77
2023/05/14 12:26:40;;;;;;;6.65;4.53;;;28.80;54.60;;;;;;5063543;28;20068;-76
2023/05/14 12:29:06;;;;;;;7.28;4.90;;;28.70;55.20;;;;;;5067046;28;20044;-77
2023/05/14 12:31:36;;;;;;;9.93;5.15;;;28.60;54.90;;;;;;5074390;28;20056;-78
2023/05/14 12:34:03;;;;;;;8.18;4.60;;;28.40;53.70;;;;;;5065500;28;20067;-77
2023/05/14 12:36:31;;;;;;;9.95;4.10;;;28.30;53.50;;;;;;5060051;28;20053;-77